sensor_id;sensor_type;location;lat;lon;timestamp;P1;durP1;ratioP1;P2;durP2;ratioP2
44048;SDS011;29717;47.028;15.470;2023-02-01T00:02:25;18.70;;;11.53;;
44048;SDS011;29717;47.028;15.470;2023-02-01T00:04:51;18.13;;;11.20;;
44048;SDS011;29717;47.028;15.470;2023-02-01T00:07:18;20.17;;;11.20;;
44048;SDS011;29717;47.028;15.470;2023-02-01T00:09:45;17.93;;;10.37;;
44048;SDS011;29717;47.028;15.470;2023-02-01T00:12:13;15.80;;;10.50;;
44048;SDS011;29717;47.028;15.470;2023-02-01T00:14:40;16.20;;;10.67;;
44048;SDS011;29717;47.028;15.470;2023-02-01T00:17:07;14.80;;;10.37;;
44048;SDS011;29717;47.028;15.470;2023-02-01T00:19:34;15.70;;;10.27;;
44048;SDS011;29717;47.028;15.470;2023-02-01T00:22:01;18.10;;;12.90;;
44048;SDS011;29717;47.028;15.470;2023-02-01T00:24:28;17.87;;;12.93;;
44048;SDS011;29717;47.028;15.470;2023-02-01T00:26:55;20.77;;;13.97;;
44048;SDS011;29717;47.028;15.470;2023-02-01T00:29:23;18.13;;;14.10;;
44048;SDS011;29717;47.028;15.470;2023-02-01T00:31:50;18.80;;;12.33;;
44048;SDS011;29717;47.028;15.470;2023-02-01T00:34:17;19.33;;;12.57;;
44048;SDS011;29717;47.028;15.470;2023-02-01T00:36:45;19.23;;;12.20;;
44048;SDS011;29717;47.028;15.470;2023-02-01T00:39:12;18.57;;;12.60;;
44048;SDS011;29717;47.028;15.470;2023-02-01T00:41:39;15.60;;;11.07;;
44048;SDS011;29717;47.028;15.470;2023-02-01T00:44:07;19.43;;;12.20;;
44048;SDS011;29717;47.028;15.470;2023-02-01T00:46:35;18.63;;;11.53;;
44048;SDS011;29717;47.028;15.470;2023-02-01T00:49:03;16.43;;;11.13;;
44048;SDS011;29717;47.028;15.470;2023-02-01T00:51:33;19.17;;;11.97;;
44048;SDS011;29717;47.028;15.470;2023-02-01T00:54:00;16.90;;;11.70;;
44048;SDS011;29717;47.028;15.470;2023-02-01T00:56:27;16.13;;;11.33;;
44048;SDS011;29717;47.028;15.470;2023-02-01T00:58:54;15.10;;;10.13;;
44048;SDS011;29717;47.028;15.470;2023-02-01T01:01:21;15.90;;;11.03;;
44048;SDS011;29717;47.028;15.470;2023-02-01T01:03:51;13.90;;;10.73;;
44048;SDS011;29717;47.028;15.470;2023-02-01T01:06:19;14.53;;;9.30;;
44048;SDS011;29717;47.028;15.470;2023-02-01T01:08:46;17.83;;;9.67;;
44048;SDS011;29717;47.028;15.470;2023-02-01T01:11:14;14.53;;;9.60;;
44048;SDS011;29717;47.028;15.470;2023-02-01T01:13:42;15.80;;;9.27;;
44048;SDS011;29717;47.028;15.470;2023-02-01T01:16:09;13.90;;;9.20;;
44048;SDS011;29717;47.028;15.470;2023-02-01T01:18:36;13.90;;;9.00;;
44048;SDS011;29717;47.028;15.470;2023-02-01T01:21:05;14.27;;;8.03;;
44048;SDS011;29717;47.028;15.470;2023-02-01T01:23:33;14.93;;;8.73;;
44048;SDS011;29717;47.028;15.470;2023-02-01T01:26:00;11.97;;;8.07;;
44048;SDS011;29717;47.028;15.470;2023-02-01T01:28:27;14.50;;;8.10;;
44048;SDS011;29717;47.028;15.470;2023-02-01T01:30:54;13.43;;;7.83;;
44048;SDS011;29717;47.028;15.470;2023-02-01T01:33:28;11.70;;;7.43;;
44048;SDS011;29717;47.028;15.470;2023-02-01T01:35:55;11.23;;;7.37;;
44048;SDS011;29717;47.028;15.470;2023-02-01T01:38:23;14.07;;;8.10;;
44048;SDS011;29717;47.028;15.470;2023-02-01T01:40:50;13.63;;;7.37;;
44048;SDS011;29717;47.028;15.470;2023-02-01T01:43:17;9.73;;;7.13;;
44048;SDS011;29717;47.028;15.470;2023-02-01T01:45:45;12.63;;;8.00;;
44048;SDS011;29717;47.028;15.470;2023-02-01T01:48:13;10.77;;;6.87;;
44048;SDS011;29717;47.028;15.470;2023-02-01T01:50:42;12.37;;;7.60;;
44048;SDS011;29717;47.028;15.470;2023-02-01T01:53:15;12.43;;;7.80;;
44048;SDS011;29717;47.028;15.470;2023-02-01T01:55:44;13.80;;;8.07;;
44048;SDS011;29717;47.028;15.470;2023-02-01T01:58:13;14.40;;;7.73;;
44048;SDS011;29717;47.028;15.470;2023-02-01T02:08:31;11.33;;;7.70;;
44048;SDS011;29717;47.028;15.470;2023-02-01T02:11:07;12.67;;;8.20;;
44048;SDS011;29717;47.028;15.470;2023-02-01T02:16:39;11.10;;;7.70;;
44048;SDS011;29717;47.028;15.470;2023-02-01T03:01:19;7.03;;;5.30;;
44048;SDS011;29717;47.028;15.470;2023-02-01T03:04:03;11.77;;;7.50;;
44048;SDS011;29717;47.028;15.470;2023-02-01T03:06:36;10.57;;;7.27;;
44048;SDS011;29717;47.028;15.470;2023-02-01T03:09:05;13.10;;;7.50;;
44048;SDS011;29717;47.028;15.470;2023-02-01T03:11:35;9.73;;;7.27;;
44048;SDS011;29717;47.028;15.470;2023-02-01T03:14:16;14.33;;;7.83;;
44048;SDS011;29717;47.028;15.470;2023-02-01T03:16:47;12.17;;;8.30;;
44048;SDS011;29717;47.028;15.470;2023-02-01T03:19:17;11.30;;;6.97;;
44048;SDS011;29717;47.028;15.470;2023-02-01T03:21:47;12.27;;;6.97;;
44048;SDS011;29717;47.028;15.470;2023-02-01T03:24:15;14.20;;;7.50;;
44048;SDS011;29717;47.028;15.470;2023-02-01T03:26:46;13.90;;;7.13;;
44048;SDS011;29717;47.028;15.470;2023-02-01T03:29:16;10.17;;;7.00;;
44048;SDS011;29717;47.028;15.470;2023-02-01T03:31:46;11.20;;;6.53;;
44048;SDS011;29717;47.028;15.470;2023-02-01T03:34:13;9.60;;;6.50;;
44048;SDS011;29717;47.028;15.470;2023-02-01T03:36:41;10.47;;;5.90;;
44048;SDS011;29717;47.028;15.470;2023-02-01T03:39:09;13.37;;;6.73;;
44048;SDS011;29717;47.028;15.470;2023-02-01T03:41:40;10.67;;;7.47;;
44048;SDS011;29717;47.028;15.470;2023-02-01T03:44:10;10.20;;;7.03;;
44048;SDS011;29717;47.028;15.470;2023-02-01T03:46:39;9.73;;;6.80;;
44048;SDS011;29717;47.028;15.470;2023-02-01T03:49:09;15.30;;;7.67;;
44048;SDS011;29717;47.028;15.470;2023-02-01T03:51:40;12.63;;;8.17;;
44048;SDS011;29717;47.028;15.470;2023-02-01T03:54:08;11.30;;;7.33;;
44048;SDS011;29717;47.028;15.470;2023-02-01T03:56:35;8.80;;;7.43;;
44048;SDS011;29717;47.028;15.470;2023-02-01T03:59:03;11.83;;;7.23;;
44048;SDS011;29717;47.028;15.470;2023-02-01T04:01:30;13.67;;;7.83;;
44048;SDS011;29717;47.028;15.470;2023-02-01T04:03:57;12.90;;;8.50;;
44048;SDS011;29717;47.028;15.470;2023-02-01T04:06:26;20.47;;;9.00;;
44048;SDS011;29717;47.028;15.470;2023-02-01T04:08:52;16.43;;;9.13;;
44048;SDS011;29717;47.028;15.470;2023-02-01T04:11:19;15.57;;;8.70;;
44048;SDS011;29717;47.028;15.470;2023-02-01T04:13:46;15.13;;;9.60;;
44048;SDS011;29717;47.028;15.470;2023-02-01T04:16:13;19.77;;;10.40;;
44048;SDS011;29717;47.028;15.470;2023-02-01T04:18:40;14.50;;;8.93;;
44048;SDS011;29717;47.028;15.470;2023-02-01T04:21:07;17.47;;;10.27;;
44048;SDS011;29717;47.028;15.470;2023-02-01T04:23:35;16.70;;;9.90;;
44048;SDS011;29717;47.028;15.470;2023-02-01T04:26:03;18.73;;;10.03;;
44048;SDS011;29717;47.028;15.470;2023-02-01T04:28:30;13.57;;;10.07;;
44048;SDS011;29717;47.028;15.470;2023-02-01T04:30:58;13.70;;;9.73;;
44048;SDS011;29717;47.028;15.470;2023-02-01T04:33:26;17.93;;;10.50;;
44048;SDS011;29717;47.028;15.470;2023-02-01T04:35:53;14.70;;;9.20;;
44048;SDS011;29717;47.028;15.470;2023-02-01T04:38:20;18.90;;;9.80;;
44048;SDS011;29717;47.028;15.470;2023-02-01T04:40:48;13.60;;;9.10;;
44048;SDS011;29717;47.028;15.470;2023-02-01T04:43:15;12.87;;;8.50;;
44048;SDS011;29717;47.028;15.470;2023-02-01T04:45:46;14.83;;;9.70;;
44048;SDS011;29717;47.028;15.470;2023-02-01T04:48:13;16.77;;;9.47;;
44048;SDS011;29717;47.028;15.470;2023-02-01T04:50:40;16.00;;;9.57;;
44048;SDS011;29717;47.028;15.470;2023-02-01T04:53:07;15.33;;;9.43;;
44048;SDS011;29717;47.028;15.470;2023-02-01T04:55:34;16.70;;;10.40;;
44048;SDS011;29717;47.028;15.470;2023-02-01T04:58:02;16.20;;;10.57;;
44048;SDS011;29717;47.028;15.470;2023-02-01T05:00:29;18.33;;;11.47;;
44048;SDS011;29717;47.028;15.470;2023-02-01T05:02:56;17.53;;;11.10;;
44048;SDS011;29717;47.028;15.470;2023-02-01T05:05:23;19.57;;;12.47;;
44048;SDS011;29717;47.028;15.470;2023-02-01T05:07:50;17.70;;;11.00;;
44048;SDS011;29717;47.028;15.470;2023-02-01T05:10:17;21.40;;;11.80;;
44048;SDS011;29717;47.028;15.470;2023-02-01T05:12:44;19.03;;;11.50;;
44048;SDS011;29717;47.028;15.470;2023-02-01T05:15:30;17.53;;;11.17;;
44048;SDS011;29717;47.028;15.470;2023-02-01T05:17:57;14.20;;;10.27;;
44048;SDS011;29717;47.028;15.470;2023-02-01T05:20:24;14.57;;;10.63;;
44048;SDS011;29717;47.028;15.470;2023-02-01T05:22:51;15.93;;;10.37;;
44048;SDS011;29717;47.028;15.470;2023-02-01T05:25:18;14.77;;;10.13;;
44048;SDS011;29717;47.028;15.470;2023-02-01T05:27:45;14.93;;;9.73;;
44048;SDS011;29717;47.028;15.470;2023-02-01T05:30:12;17.13;;;9.57;;
44048;SDS011;29717;47.028;15.470;2023-02-01T05:32:40;17.37;;;10.87;;
44048;SDS011;29717;47.028;15.470;2023-02-01T05:35:07;16.63;;;9.97;;
44048;SDS011;29717;47.028;15.470;2023-02-01T05:37:34;14.50;;;9.37;;
44048;SDS011;29717;47.028;15.470;2023-02-01T05:40:01;18.07;;;11.00;;
44048;SDS011;29717;47.028;15.470;2023-02-01T05:42:28;20.77;;;10.77;;
44048;SDS011;29717;47.028;15.470;2023-02-01T05:44:55;22.13;;;12.70;;
44048;SDS011;29717;47.028;15.470;2023-02-01T05:47:22;17.87;;;11.27;;
44048;SDS011;29717;47.028;15.470;2023-02-01T05:49:50;20.63;;;12.03;;
44048;SDS011;29717;47.028;15.470;2023-02-01T05:52:17;20.93;;;11.77;;
44048;SDS011;29717;47.028;15.470;2023-02-01T05:54:45;21.93;;;12.03;;
44048;SDS011;29717;47.028;15.470;2023-02-01T05:57:12;19.87;;;11.60;;
44048;SDS011;29717;47.028;15.470;2023-02-01T05:59:39;20.57;;;12.00;;
44048;SDS011;29717;47.028;15.470;2023-02-01T06:02:10;21.13;;;12.67;;
44048;SDS011;29717;47.028;15.470;2023-02-01T06:04:37;17.93;;;11.83;;
44048;SDS011;29717;47.028;15.470;2023-02-01T06:07:06;18.30;;;11.73;;
44048;SDS011;29717;47.028;15.470;2023-02-01T06:09:34;24.47;;;11.97;;
44048;SDS011;29717;47.028;15.470;2023-02-01T06:12:01;24.23;;;12.17;;
44048;SDS011;29717;47.028;15.470;2023-02-01T06:14:28;20.13;;;11.90;;
44048;SDS011;29717;47.028;15.470;2023-02-01T06:16:55;22.13;;;12.50;;
44048;SDS011;29717;47.028;15.470;2023-02-01T06:19:22;19.83;;;11.83;;
44048;SDS011;29717;47.028;15.470;2023-02-01T06:21:49;20.77;;;11.43;;
44048;SDS011;29717;47.028;15.470;2023-02-01T06:24:18;21.63;;;11.70;;
44048;SDS011;29717;47.028;15.470;2023-02-01T06:26:45;19.93;;;11.70;;
44048;SDS011;29717;47.028;15.470;2023-02-01T06:29:12;18.83;;;11.53;;
44048;SDS011;29717;47.028;15.470;2023-02-01T06:31:39;19.43;;;11.90;;
44048;SDS011;29717;47.028;15.470;2023-02-01T06:34:08;15.80;;;10.90;;
44048;SDS011;29717;47.028;15.470;2023-02-01T06:36:35;16.83;;;10.00;;
44048;SDS011;29717;47.028;15.470;2023-02-01T06:39:01;17.57;;;10.90;;
44048;SDS011;29717;47.028;15.470;2023-02-01T06:41:30;17.53;;;10.87;;
44048;SDS011;29717;47.028;15.470;2023-02-01T06:43:59;15.23;;;9.97;;
44048;SDS011;29717;47.028;15.470;2023-02-01T06:46:26;18.13;;;10.30;;
44048;SDS011;29717;47.028;15.470;2023-02-01T06:48:53;17.20;;;10.87;;
44048;SDS011;29717;47.028;15.470;2023-02-01T06:51:21;20.33;;;11.03;;
44048;SDS011;29717;47.028;15.470;2023-02-01T06:53:49;16.27;;;9.97;;
44048;SDS011;29717;47.028;15.470;2023-02-01T06:56:16;15.67;;;9.50;;
44048;SDS011;29717;47.028;15.470;2023-02-01T06:58:44;14.33;;;9.37;;
44048;SDS011;29717;47.028;15.470;2023-02-01T07:01:11;14.10;;;8.87;;
44048;SDS011;29717;47.028;15.470;2023-02-01T07:03:38;14.23;;;9.30;;
44048;SDS011;29717;47.028;15.470;2023-02-01T07:06:05;15.87;;;10.90;;
44048;SDS011;29717;47.028;15.470;2023-02-01T07:08:33;14.80;;;9.60;;
44048;SDS011;29717;47.028;15.470;2023-02-01T07:11:01;12.77;;;9.23;;
44048;SDS011;29717;47.028;15.470;2023-02-01T07:13:27;12.13;;;8.47;;
44048;SDS011;29717;47.028;15.470;2023-02-01T07:15:58;16.70;;;8.73;;
44048;SDS011;29717;47.028;15.470;2023-02-01T07:18:25;13.23;;;8.97;;
44048;SDS011;29717;47.028;15.470;2023-02-01T07:20:52;18.70;;;9.70;;
44048;SDS011;29717;47.028;15.470;2023-02-01T07:23:19;15.07;;;8.70;;
44048;SDS011;29717;47.028;15.470;2023-02-01T07:25:45;13.77;;;10.10;;
44048;SDS011;29717;47.028;15.470;2023-02-01T07:28:12;17.90;;;10.20;;
44048;SDS011;29717;47.028;15.470;2023-02-01T07:30:39;18.70;;;10.30;;
44048;SDS011;29717;47.028;15.470;2023-02-01T07:33:08;17.67;;;10.53;;
44048;SDS011;29717;47.028;15.470;2023-02-01T07:35:35;18.33;;;11.33;;
44048;SDS011;29717;47.028;15.470;2023-02-01T07:38:02;21.40;;;11.40;;
44048;SDS011;29717;47.028;15.470;2023-02-01T07:40:29;23.57;;;11.40;;
44048;SDS011;29717;47.028;15.470;2023-02-01T07:42:56;20.70;;;10.40;;
44048;SDS011;29717;47.028;15.470;2023-02-01T07:45:23;23.43;;;10.70;;
44048;SDS011;29717;47.028;15.470;2023-02-01T07:47:51;19.37;;;10.97;;
44048;SDS011;29717;47.028;15.470;2023-02-01T07:50:20;19.87;;;10.50;;
44048;SDS011;29717;47.028;15.470;2023-02-01T07:52:46;17.90;;;8.37;;
44048;SDS011;29717;47.028;15.470;2023-02-01T07:55:13;13.30;;;8.10;;
44048;SDS011;29717;47.028;15.470;2023-02-01T07:57:40;15.07;;;7.97;;
44048;SDS011;29717;47.028;15.470;2023-02-01T08:00:08;14.83;;;8.10;;
44048;SDS011;29717;47.028;15.470;2023-02-01T08:02:52;13.53;;;7.73;;
44048;SDS011;29717;47.028;15.470;2023-02-01T08:05:20;16.67;;;8.37;;
44048;SDS011;29717;47.028;15.470;2023-02-01T08:07:48;20.87;;;9.27;;
44048;SDS011;29717;47.028;15.470;2023-02-01T08:10:15;17.50;;;8.97;;
44048;SDS011;29717;47.028;15.470;2023-02-01T08:12:42;16.17;;;8.50;;
44048;SDS011;29717;47.028;15.470;2023-02-01T08:15:13;16.73;;;9.40;;
44048;SDS011;29717;47.028;15.470;2023-02-01T08:17:40;14.60;;;8.63;;
44048;SDS011;29717;47.028;15.470;2023-02-01T08:20:07;19.35;;;8.02;;
44048;SDS011;29717;47.028;15.470;2023-02-01T08:22:36;15.75;;;8.45;;
44048;SDS011;29717;47.028;15.470;2023-02-01T08:25:04;11.82;;;7.40;;
44048;SDS011;29717;47.028;15.470;2023-02-01T08:27:32;15.40;;;7.90;;
44048;SDS011;29717;47.028;15.470;2023-02-01T08:29:59;9.35;;;7.30;;
44048;SDS011;29717;47.028;15.470;2023-02-01T08:32:26;15.68;;;8.40;;
44048;SDS011;29717;47.028;15.470;2023-02-01T08:34:53;16.15;;;7.60;;
44048;SDS011;29717;47.028;15.470;2023-02-01T08:37:19;19.50;;;8.52;;
44048;SDS011;29717;47.028;15.470;2023-02-01T08:39:49;10.98;;;6.97;;
44048;SDS011;29717;47.028;15.470;2023-02-01T08:42:16;12.93;;;7.18;;
44048;SDS011;29717;47.028;15.470;2023-02-01T08:45:00;13.07;;;6.78;;
44048;SDS011;29717;47.028;15.470;2023-02-01T08:47:27;13.27;;;6.40;;
44048;SDS011;29717;47.028;15.470;2023-02-01T08:49:55;13.93;;;7.03;;
44048;SDS011;29717;47.028;15.470;2023-02-01T08:52:22;18.33;;;7.15;;
44048;SDS011;29717;47.028;15.470;2023-02-01T08:54:50;10.25;;;5.85;;
44048;SDS011;29717;47.028;15.470;2023-02-01T08:57:17;13.30;;;6.03;;
44048;SDS011;29717;47.028;15.470;2023-02-01T08:59:44;9.93;;;6.53;;
44048;SDS011;29717;47.028;15.470;2023-02-01T09:02:11;11.00;;;6.70;;
44048;SDS011;29717;47.028;15.470;2023-02-01T09:04:38;12.73;;;6.40;;
44048;SDS011;29717;47.028;15.470;2023-02-01T09:07:05;15.27;;;6.18;;
44048;SDS011;29717;47.028;15.470;2023-02-01T09:09:32;6.90;;;4.88;;
44048;SDS011;29717;47.028;15.470;2023-02-01T09:12:00;5.70;;;4.50;;
44048;SDS011;29717;47.028;15.470;2023-02-01T09:14:28;11.63;;;5.75;;
44048;SDS011;29717;47.028;15.470;2023-02-01T09:16:55;8.27;;;6.30;;
44048;SDS011;29717;47.028;15.470;2023-02-01T09:19:22;15.90;;;6.40;;
44048;SDS011;29717;47.028;15.470;2023-02-01T09:21:49;9.25;;;7.60;;
44048;SDS011;29717;47.028;15.470;2023-02-01T09:24:16;12.35;;;7.20;;
44048;SDS011;29717;47.028;15.470;2023-02-01T09:26:43;11.63;;;7.55;;
44048;SDS011;29717;47.028;15.470;2023-02-01T09:29:11;22.60;;;8.65;;
44048;SDS011;29717;47.028;15.470;2023-02-01T09:31:38;18.02;;;8.18;;
44048;SDS011;29717;47.028;15.470;2023-02-01T09:34:06;11.43;;;6.47;;
44048;SDS011;29717;47.028;15.470;2023-02-01T09:36:33;10.98;;;5.15;;
44048;SDS011;29717;47.028;15.470;2023-02-01T09:39:00;6.20;;;4.60;;
44048;SDS011;29717;47.028;15.470;2023-02-01T09:41:32;7.93;;;4.10;;
44048;SDS011;29717;47.028;15.470;2023-02-01T09:44:05;5.38;;;3.05;;
44048;SDS011;29717;47.028;15.470;2023-02-01T09:46:35;4.05;;;3.20;;
44048;SDS011;29717;47.028;15.470;2023-02-01T09:49:03;4.78;;;3.45;;
44048;SDS011;29717;47.028;15.470;2023-02-01T09:51:32;4.55;;;3.55;;
44048;SDS011;29717;47.028;15.470;2023-02-01T09:54:02;10.55;;;4.97;;
44048;SDS011;29717;47.028;15.470;2023-02-01T09:56:33;11.98;;;6.47;;
44048;SDS011;29717;47.028;15.470;2023-02-01T09:59:03;11.38;;;6.45;;
44048;SDS011;29717;47.028;15.470;2023-02-01T10:01:32;7.00;;;5.28;;
44048;SDS011;29717;47.028;15.470;2023-02-01T10:04:02;8.80;;;5.97;;
44048;SDS011;29717;47.028;15.470;2023-02-01T10:06:33;9.52;;;5.50;;
44048;SDS011;29717;47.028;15.470;2023-02-01T10:09:15;7.88;;;5.28;;
44048;SDS011;29717;47.028;15.470;2023-02-01T10:11:51;9.20;;;5.13;;
44048;SDS011;29717;47.028;15.470;2023-02-01T10:14:29;7.85;;;4.70;;
44048;SDS011;29717;47.028;15.470;2023-02-01T10:17:04;5.20;;;4.07;;
44048;SDS011;29717;47.028;15.470;2023-02-01T10:19:39;4.90;;;3.72;;
44048;SDS011;29717;47.028;15.470;2023-02-01T10:22:10;7.13;;;4.53;;
44048;SDS011;29717;47.028;15.470;2023-02-01T10:24:39;13.85;;;5.15;;
44048;SDS011;29717;47.028;15.470;2023-02-01T10:27:13;10.88;;;5.13;;
44048;SDS011;29717;47.028;15.470;2023-02-01T10:29:41;14.95;;;6.00;;
44048;SDS011;29717;47.028;15.470;2023-02-01T10:32:13;7.75;;;5.35;;
44048;SDS011;29717;47.028;15.470;2023-02-01T10:34:41;9.00;;;5.65;;
44048;SDS011;29717;47.028;15.470;2023-02-01T10:37:13;10.32;;;6.07;;
44048;SDS011;29717;47.028;15.470;2023-02-01T10:39:45;9.52;;;5.50;;
44048;SDS011;29717;47.028;15.470;2023-02-01T10:42:13;13.77;;;6.40;;
44048;SDS011;29717;47.028;15.470;2023-02-01T10:44:41;15.77;;;6.40;;
44048;SDS011;29717;47.028;15.470;2023-02-01T10:47:10;10.02;;;6.45;;
44048;SDS011;29717;47.028;15.470;2023-02-01T10:49:38;8.95;;;5.70;;
44048;SDS011;29717;47.028;15.470;2023-02-01T10:52:12;11.95;;;5.55;;
44048;SDS011;29717;47.028;15.470;2023-02-01T10:54:40;12.00;;;5.75;;
44048;SDS011;29717;47.028;15.470;2023-02-01T10:57:07;10.77;;;5.55;;
44048;SDS011;29717;47.028;15.470;2023-02-01T10:59:35;14.05;;;5.70;;
44048;SDS011;29717;47.028;15.470;2023-02-01T11:02:15;14.60;;;6.40;;
44048;SDS011;29717;47.028;15.470;2023-02-01T11:04:42;10.82;;;6.78;;
44048;SDS011;29717;47.028;15.470;2023-02-01T11:07:15;10.43;;;6.57;;
44048;SDS011;29717;47.028;15.470;2023-02-01T11:09:48;9.80;;;5.20;;
44048;SDS011;29717;47.028;15.470;2023-02-01T11:12:23;14.43;;;6.30;;
44048;SDS011;29717;47.028;15.470;2023-02-01T11:14:51;14.93;;;6.18;;
44048;SDS011;29717;47.028;15.470;2023-02-01T11:17:26;16.35;;;6.05;;
44048;SDS011;29717;47.028;15.470;2023-02-01T11:19:58;7.75;;;5.68;;
44048;SDS011;29717;47.028;15.470;2023-02-01T11:22:27;7.28;;;5.28;;
44048;SDS011;29717;47.028;15.470;2023-02-01T11:24:55;9.05;;;5.22;;
44048;SDS011;29717;47.028;15.470;2023-02-01T11:27:23;10.20;;;5.22;;
44048;SDS011;29717;47.028;15.470;2023-02-01T11:29:51;4.18;;;2.25;;
44048;SDS011;29717;47.028;15.470;2023-02-01T11:32:19;6.20;;;3.75;;
44048;SDS011;29717;47.028;15.470;2023-02-01T11:34:47;11.85;;;5.38;;
44048;SDS011;29717;47.028;15.470;2023-02-01T11:37:16;7.03;;;4.50;;
44048;SDS011;29717;47.028;15.470;2023-02-01T11:39:52;9.50;;;5.38;;
44048;SDS011;29717;47.028;15.470;2023-02-01T11:42:20;8.07;;;5.07;;
44048;SDS011;29717;47.028;15.470;2023-02-01T11:44:47;13.90;;;6.03;;
44048;SDS011;29717;47.028;15.470;2023-02-01T11:47:21;13.68;;;6.00;;
44048;SDS011;29717;47.028;15.470;2023-02-01T11:49:48;13.20;;;5.70;;
44048;SDS011;29717;47.028;15.470;2023-02-01T11:52:17;24.58;;;6.05;;
44048;SDS011;29717;47.028;15.470;2023-02-01T11:54:59;14.90;;;5.65;;
44048;SDS011;29717;47.028;15.470;2023-02-01T11:57:41;12.63;;;4.68;;
44048;SDS011;29717;47.028;15.470;2023-02-01T12:03:06;11.05;;;3.97;;
44048;SDS011;29717;47.028;15.470;2023-02-01T12:05:37;6.85;;;3.55;;
44048;SDS011;29717;47.028;15.470;2023-02-01T12:08:26;11.30;;;3.95;;
44048;SDS011;29717;47.028;15.470;2023-02-01T12:11:01;12.18;;;4.07;;
44048;SDS011;29717;47.028;15.470;2023-02-01T12:13:34;12.27;;;3.13;;
44048;SDS011;29717;47.028;15.470;2023-02-01T12:16:08;8.30;;;2.65;;
44048;SDS011;29717;47.028;15.470;2023-02-01T12:18:55;1.58;;;1.40;;
44048;SDS011;29717;47.028;15.470;2023-02-01T12:24:15;1.30;;;0.50;;
44048;SDS011;29717;47.028;15.470;2023-02-01T12:29:33;2.10;;;0.50;;
44048;SDS011;29717;47.028;15.470;2023-02-01T12:32:10;1.42;;;0.75;;
44048;SDS011;29717;47.028;15.470;2023-02-01T12:34:52;2.55;;;0.52;;
44048;SDS011;29717;47.028;15.470;2023-02-01T12:37:25;3.50;;;0.50;;
44048;SDS011;29717;47.028;15.470;2023-02-01T12:39:56;3.92;;;0.40;;
44048;SDS011;29717;47.028;15.470;2023-02-01T12:42:26;1.88;;;0.40;;
44048;SDS011;29717;47.028;15.470;2023-02-01T12:44:55;3.70;;;0.50;;
44048;SDS011;29717;47.028;15.470;2023-02-01T12:47:25;2.50;;;0.40;;
44048;SDS011;29717;47.028;15.470;2023-02-01T12:49:54;4.68;;;1.00;;
44048;SDS011;29717;47.028;15.470;2023-02-01T12:52:24;1.27;;;0.30;;
44048;SDS011;29717;47.028;15.470;2023-02-01T12:54:54;0.35;;;0.35;;
44048;SDS011;29717;47.028;15.470;2023-02-01T12:57:23;3.60;;;0.57;;
44048;SDS011;29717;47.028;15.470;2023-02-01T12:59:54;0.50;;;0.38;;
44048;SDS011;29717;47.028;15.470;2023-02-01T13:02:27;2.25;;;0.50;;
44048;SDS011;29717;47.028;15.470;2023-02-01T13:05:01;3.80;;;0.50;;
44048;SDS011;29717;47.028;15.470;2023-02-01T13:07:30;4.63;;;0.40;;
44048;SDS011;29717;47.028;15.470;2023-02-01T13:10:00;0.93;;;0.40;;
44048;SDS011;29717;47.028;15.470;2023-02-01T13:12:30;1.40;;;0.50;;
44048;SDS011;29717;47.028;15.470;2023-02-01T13:15:02;1.42;;;0.40;;
44048;SDS011;29717;47.028;15.470;2023-02-01T13:17:31;1.85;;;0.57;;
44048;SDS011;29717;47.028;15.470;2023-02-01T13:19:59;1.95;;;0.63;;
44048;SDS011;29717;47.028;15.470;2023-02-01T13:22:28;1.85;;;0.50;;
44048;SDS011;29717;47.028;15.470;2023-02-01T13:24:56;0.60;;;0.50;;
44048;SDS011;29717;47.028;15.470;2023-02-01T13:27:25;2.03;;;0.40;;
44048;SDS011;29717;47.028;15.470;2023-02-01T13:29:54;0.50;;;0.47;;
44048;SDS011;29717;47.028;15.470;2023-02-01T13:32:27;2.25;;;0.60;;
44048;SDS011;29717;47.028;15.470;2023-02-01T13:35:12;0.60;;;0.43;;
44048;SDS011;29717;47.028;15.470;2023-02-01T13:37:53;1.10;;;0.60;;
44048;SDS011;29717;47.028;15.470;2023-02-01T13:40:31;2.67;;;0.50;;
44048;SDS011;29717;47.028;15.470;2023-02-01T13:43:04;1.65;;;0.60;;
44048;SDS011;29717;47.028;15.470;2023-02-01T13:45:33;0.52;;;0.40;;
44048;SDS011;29717;47.028;15.470;2023-02-01T13:48:02;0.63;;;0.50;;
44048;SDS011;29717;47.028;15.470;2023-02-01T13:50:31;2.85;;;0.70;;
44048;SDS011;29717;47.028;15.470;2023-02-01T13:53:03;1.52;;;0.40;;
44048;SDS011;29717;47.028;15.470;2023-02-01T13:55:32;2.20;;;0.70;;
44048;SDS011;29717;47.028;15.470;2023-02-01T13:58:04;0.75;;;0.40;;
44048;SDS011;29717;47.028;15.470;2023-02-01T14:00:32;3.83;;;0.70;;
44048;SDS011;29717;47.028;15.470;2023-02-01T14:03:07;1.33;;;0.50;;
44048;SDS011;29717;47.028;15.470;2023-02-01T14:08:35;0.40;;;0.40;;
44048;SDS011;29717;47.028;15.470;2023-02-01T14:11:02;0.70;;;0.50;;
44048;SDS011;29717;47.028;15.470;2023-02-01T14:13:31;1.38;;;0.40;;
44048;SDS011;29717;47.028;15.470;2023-02-01T14:16:11;1.55;;;0.40;;
44048;SDS011;29717;47.028;15.470;2023-02-01T14:18:49;0.88;;;0.60;;
44048;SDS011;29717;47.028;15.470;2023-02-01T14:21:18;0.35;;;0.35;;
44048;SDS011;29717;47.028;15.470;2023-02-01T14:23:54;0.82;;;0.60;;
44048;SDS011;29717;47.028;15.470;2023-02-01T14:26:23;0.93;;;0.60;;
44048;SDS011;29717;47.028;15.470;2023-02-01T14:28:57;2.75;;;0.43;;
44048;SDS011;29717;47.028;15.470;2023-02-01T14:31:34;0.60;;;0.55;;
44048;SDS011;29717;47.028;15.470;2023-02-01T14:34:02;0.60;;;0.60;;
44048;SDS011;29717;47.028;15.470;2023-02-01T14:39:24;2.28;;;0.60;;
44048;SDS011;29717;47.028;15.470;2023-02-01T14:41:53;0.90;;;0.60;;
44048;SDS011;29717;47.028;15.470;2023-02-01T14:44:27;2.45;;;0.80;;
44048;SDS011;29717;47.028;15.470;2023-02-01T14:47:10;0.90;;;0.65;;
44048;SDS011;29717;47.028;15.470;2023-02-01T14:49:54;4.03;;;0.80;;
44048;SDS011;29717;47.028;15.470;2023-02-01T14:52:24;1.45;;;0.70;;
44048;SDS011;29717;47.028;15.470;2023-02-01T14:54:59;2.28;;;0.80;;
44048;SDS011;29717;47.028;15.470;2023-02-01T14:57:27;1.55;;;0.80;;
44048;SDS011;29717;47.028;15.470;2023-02-01T14:59:58;0.60;;;0.55;;
44048;SDS011;29717;47.028;15.470;2023-02-01T15:02:26;0.65;;;0.65;;
44048;SDS011;29717;47.028;15.470;2023-02-01T15:04:54;0.60;;;0.60;;
44048;SDS011;29717;47.028;15.470;2023-02-01T15:07:21;2.13;;;0.77;;
44048;SDS011;29717;47.028;15.470;2023-02-01T15:09:49;1.30;;;0.60;;
44048;SDS011;29717;47.028;15.470;2023-02-01T15:12:22;1.90;;;0.98;;
44048;SDS011;29717;47.028;15.470;2023-02-01T15:15:03;3.40;;;0.98;;
44048;SDS011;29717;47.028;15.470;2023-02-01T15:17:35;1.70;;;0.90;;
44048;SDS011;29717;47.028;15.470;2023-02-01T15:20:03;1.45;;;1.00;;
44048;SDS011;29717;47.028;15.470;2023-02-01T15:22:37;1.02;;;0.95;;
44048;SDS011;29717;47.028;15.470;2023-02-01T15:25:04;0.93;;;0.80;;
44048;SDS011;29717;47.028;15.470;2023-02-01T15:27:33;1.30;;;0.90;;
44048;SDS011;29717;47.028;15.470;2023-02-01T15:30:04;1.02;;;0.80;;
44048;SDS011;29717;47.028;15.470;2023-02-01T15:32:33;1.85;;;1.17;;
44048;SDS011;29717;47.028;15.470;2023-02-01T15:35:00;1.65;;;1.00;;
44048;SDS011;29717;47.028;15.470;2023-02-01T15:37:29;1.70;;;0.90;;
44048;SDS011;29717;47.028;15.470;2023-02-01T15:40:03;1.60;;;1.02;;
44048;SDS011;29717;47.028;15.470;2023-02-01T15:42:32;0.65;;;0.65;;
44048;SDS011;29717;47.028;15.470;2023-02-01T15:44:59;1.23;;;0.70;;